Ashby, MN (56309)

1:29 AM CST on February 14, 2016 (GMT -0600)
Stalker Lake | | Change Station
CLOSE
Current Station
Personal Weather Station
Location: Battle Lake, MN
Elevation: 1299 ft
Nearby Weather Stations
Active Advisory: Winter Weather Advisory Active Notice: Public Information Statement

Elev 1299 ft 46.19 °N, 95.81 °W | Updated 3 minutes ago

Overcast
Overcast
10.9 °F
Feels Like -1 °F
N
7.8
Wind Variable Wind from SE

Today
High -- | Low -- °F
--% Chance of Precip.
Yesterday
High -- | Low -- °F
Precip. -- in
Pressure 30.07 in
Visibility 7.0 miles
Clouds Overcast 6000 ft
Windchill -1 °F
Dew Point 5 °F
Humidity 77%
Rainfall 0.00 in
Snow Depth Not available.
7:28 AM 5:47 PM
Waxing Crescent, 39% visible
METAR KY63 140713Z AUTO 12017G24KT 100V160 7SM OVC060 M12/M15 A3007 RMK AO2 T11211153
Pressure 30.07 in
Visibility 7.0 miles
Clouds Overcast 6000 ft
Windchill -1 °F
Dew Point 5 °F
Humidity 77%
Rainfall 0.00 in
Snow Depth Not available.
7:28 AM 5:47 PM
Waxing Crescent, 39% visible
METAR KY63 140713Z AUTO 12017G24KT 100V160 7SM OVC060 M12/M15 A3007 RMK AO2 T11211153

10-Day Weather Forecast

Almanac

Astronomy

Feb. 14, 2016 Rise Set
Actual Time
Civil Twilight
Nautical Twilight
Astronomical Twilight
Moon
Length of Visible Light
Length of Day
Tomorrow will be .
, % of the Moon is Illuminated

Today's Extremes

State Highs State Lows

Community

WunderPhotos

Upload Photos

1,892,757 photos uploaded!

WunderBlog® & News

Nearby

Air Quality

  Air Quality AQ Index Pollutant
Not available.

Snow Depth

Station Depth Elevation

Earthquake Activity

City Distance Mag. Time & Date
Minimum magnitude displayed is 2.5.

Coastal Water Temperatures

Place Temperature

Stations

Nearby Weather Stations

Station Location Temp. Windchill Dew Point Humidity Wind Precip. Elev Updated Type
                   

Watches & Warnings

Winter Weather Advisory
Issued: 9:47 PM CST Feb. 13, 2016 – National Weather Service

... Winter Weather Advisory remains in effect until noon CST
Sunday...

* timing... expect snow to reach Fargo by midnight... .diminishing
around noon Sunday.

* Precipitation rates... the heaviest snowfall rates will occur
between 10 am and 6 am Sunday.

* Snow accumulations... total snow accumulations of 2 to 4
inches... with localized amounts up to 5 inches... are expected.

* Winds / visibilities... look for reduced visibilities at times as
low as one half mile.

* Impacts... plan on slippery Road conditions.

Precautionary/preparedness actions...

A Winter Weather Advisory for snow means periods of snow will
cause primarily travel difficulties. Be prepared for snow covered
roads and limited visibilities... and use caution while driving.
The latest Road conditions for the state you are calling from can
be obtained by calling 5 1 1.


Speicher